Time;durP1;ratioP1;P1;durP2;ratioP2;P2;SDS_P1;SDS_P2;PMS_P1;PMS_P2;Temp;Humidity;BMP_temperature;BMP_pressure;BME280_temperature;BME280_humidity;BME280_pressure;Samples;Min_cycle;Max_cycle;Signal;HPM_P1;HPM_P2
2022/08/19 00:01:42;;;;;;;;;;;15.00;99.90;;;;;;5032327;28;20286;-69
2022/08/19 00:04:09;;;;;;;;;;;14.90;99.90;;;;;;5031208;28;19925;-69
2022/08/19 00:06:36;;;;;;;;;;;14.90;99.90;;;;;;5029789;28;19932;-69
2022/08/19 00:09:03;;;;;;;;;;;14.80;99.90;;;;;;5032306;28;19990;-69
2022/08/19 00:11:28;;;;;;;;;;;14.70;99.90;;;;;;5031934;28;19921;-69
2022/08/19 00:13:54;;;;;;;;;;;14.80;99.90;;;;;;5027548;28;19928;-69
2022/08/19 00:16:20;;;;;;;;;;;14.70;99.90;;;;;;5034239;28;19928;-69
2022/08/19 00:18:46;;;;;;;;;;;14.70;99.90;;;;;;5031079;28;19940;-69
2022/08/19 00:21:11;;;;;;;;;;;14.70;99.90;;;;;;5030546;28;19924;-69
2022/08/19 00:23:37;;;;;;;;;;;14.70;99.90;;;;;;5031070;28;20408;-68
2022/08/19 00:26:03;;;;;;;;;;;14.60;99.90;;;;;;5030051;28;19921;-69
2022/08/19 00:28:29;;;;;;;;;;;14.60;99.90;;;;;;5026125;28;19929;-68
2022/08/19 00:30:55;;;;;;;;;;;14.60;99.90;;;;;;5030711;28;19992;-69
2022/08/19 00:33:21;;;;;;;;;;;14.50;99.90;;;;;;5029529;28;20035;-69
2022/08/19 00:35:47;;;;;;;;;;;14.50;99.90;;;;;;5030781;28;19921;-69
2022/08/19 00:38:12;;;;;;;;;;;14.50;99.90;;;;;;5030405;28;19917;-69
2022/08/19 00:40:38;;;;;;;;;;;14.30;99.90;;;;;;5030683;28;19991;-69
2022/08/19 00:43:08;;;;;;;;;;;14.30;99.90;;;;;;5032043;28;20262;-69
2022/08/19 00:45:33;;;;;;;;;;;14.30;99.90;;;;;;5030540;28;20004;-69
2022/08/19 00:48:03;;;;;;;;;;;14.40;99.90;;;;;;5032106;28;20020;-69
2022/08/19 00:50:29;;;;;;;;;;;14.40;99.90;;;;;;5030933;28;19960;-68
2022/08/19 00:52:55;;;;;;;;;;;14.40;99.90;;;;;;5030587;28;19921;-68
2022/08/19 00:55:23;;;;;;;;;;;14.30;99.90;;;;;;5031835;28;19924;-69
2022/08/19 00:57:58;;;;;;;;;;;14.30;99.90;;;;;;5028769;28;19971;-68
2022/08/19 01:00:24;;;;;;;;;;;14.30;99.90;;;;;;5031050;28;19920;-68
2022/08/19 01:02:51;;;;;;;;;;;14.30;99.90;;;;;;5031162;28;19943;-69
2022/08/19 01:05:20;;;;;;;;;;;14.30;99.90;;;;;;5030289;28;19923;-69
2022/08/19 01:07:47;;;;;;;;;;;14.30;99.90;;;;;;5034854;28;19924;-69
2022/08/19 01:10:14;;;;;;;;;;;14.20;99.90;;;;;;5027997;28;19975;-69
2022/08/19 01:12:39;;;;;;;;;;;14.20;99.90;;;;;;5030509;28;19925;-69
2022/08/19 01:15:06;;;;;;;;;;;14.20;99.90;;;;;;5030729;28;19983;-68
2022/08/19 01:17:33;;;;;;;;;;;14.20;99.90;;;;;;5025878;28;19924;-69
2022/08/19 01:19:58;;;;;;;;;;;14.20;99.90;;;;;;5023429;28;19921;-68
2022/08/19 01:22:24;;;;;;;;;;;14.20;99.90;;;;;;5030106;28;19924;-69
2022/08/19 01:24:50;;;;;;;;;;;14.20;99.90;;;;;;5034599;28;19924;-69
2022/08/19 01:27:16;;;;;;;;;;;14.10;99.90;;;;;;5029247;28;20539;-69
2022/08/19 01:29:43;;;;;;;;;;;14.10;99.90;;;;;;5023971;28;20376;-69
2022/08/19 01:32:10;;;;;;;;;;;14.10;99.90;;;;;;5028079;28;19923;-68
2022/08/19 01:34:39;;;;;;;;;;;14.00;99.90;;;;;;5029661;28;20481;-69
2022/08/19 01:37:10;;;;;;;;;;;14.00;99.90;;;;;;5029138;28;20003;-69
2022/08/19 01:39:36;;;;;;;;;;;14.00;99.90;;;;;;5030561;28;19925;-69
2022/08/19 01:42:03;;;;;;;;;;;14.00;99.90;;;;;;5028632;28;19921;-69
2022/08/19 01:44:28;;;;;;;;;;;14.00;99.90;;;;;;5029718;28;19927;-68
2022/08/19 01:46:54;;;;;;;;;;;14.00;99.90;;;;;;5029003;28;19917;-69
2022/08/19 01:49:21;;;;;;;;;;;14.00;99.90;;;;;;5030595;28;20267;-68
2022/08/19 01:51:47;;;;;;;;;;;13.90;99.90;;;;;;5030395;28;19925;-69
2022/08/19 01:54:13;;;;;;;;;;;13.90;99.90;;;;;;5033131;28;19961;-69
2022/08/19 01:56:39;;;;;;;;;;;13.80;99.90;;;;;;5030085;28;19917;-68
2022/08/19 01:59:10;;;;;;;;;;;13.80;99.90;;;;;;5027937;28;19925;-69
2022/08/19 02:01:35;;;;;;;;;;;13.80;99.90;;;;;;5028422;28;20035;-68
2022/08/19 02:04:01;;;;;;;;;;;13.80;99.90;;;;;;5028755;28;20001;-69
2022/08/19 02:06:27;;;;;;;;;;;13.80;99.90;;;;;;5029486;28;19920;-69
2022/08/19 02:08:52;;;;;;;;;;;13.70;99.90;;;;;;5028326;28;19978;-69
2022/08/19 02:11:31;;;;;;;;;;;13.60;99.90;;;;;;5029679;28;19925;-68
2022/08/19 02:13:57;;;;;;;;;;;13.60;99.90;;;;;;5029278;28;20337;-68
2022/08/19 02:16:22;;;;;;;;;;;13.60;99.90;;;;;;5030772;28;20009;-69
2022/08/19 02:18:48;;;;;;;;;;;13.60;99.90;;;;;;5025659;28;19961;-69
2022/08/19 02:21:17;;;;;;;;;;;13.60;99.90;;;;;;5027185;28;19917;-68
2022/08/19 02:23:43;;;;;;;;;;;13.60;99.90;;;;;;5032514;28;20334;-68
2022/08/19 02:26:09;;;;;;;;;;;13.60;99.90;;;;;;5033430;28;19975;-69
2022/08/19 02:28:34;;;;;;;;;;;13.60;99.90;;;;;;5033711;28;19925;-68
2022/08/19 02:31:00;;;;;;;;;;;13.60;99.90;;;;;;5030986;28;19917;-68
2022/08/19 02:33:26;;;;;;;;;;;13.60;99.90;;;;;;5030417;28;19917;-68
2022/08/19 02:35:51;;;;;;;;;;;13.60;99.90;;;;;;5014849;28;19996;-68
2022/08/19 02:38:26;;;;;;;;;;;13.50;99.90;;;;;;5032707;28;19947;-68
2022/08/19 02:40:59;;;;;;;;;;;13.50;99.90;;;;;;5033427;28;19925;-68
2022/08/19 02:43:25;;;;;;;;;;;13.60;99.90;;;;;;5027223;28;19971;-68
2022/08/19 02:45:51;;;;;;;;;;;13.60;99.90;;;;;;5029525;28;19923;-69
2022/08/19 02:48:20;;;;;;;;;;;13.60;99.90;;;;;;5027440;28;20270;-68
2022/08/19 02:50:46;;;;;;;;;;;13.50;99.90;;;;;;5012283;28;19986;-68
2022/08/19 02:53:12;;;;;;;;;;;13.60;99.90;;;;;;5037931;28;19924;-68
2022/08/19 02:55:45;;;;;;;;;;;13.50;99.90;;;;;;5029796;28;19921;-68
2022/08/19 02:58:11;;;;;;;;;;;13.50;99.90;;;;;;5034068;28;19917;-68
2022/08/19 03:00:42;;;;;;;;;;;13.50;99.90;;;;;;5032182;28;19979;-68
2022/08/19 03:03:07;;;;;;;;;;;13.50;99.90;;;;;;5033126;28;19921;-68
2022/08/19 03:05:34;;;;;;;;;;;13.50;99.90;;;;;;5032915;28;19975;-68
2022/08/19 03:07:59;;;;;;;;;;;13.50;99.90;;;;;;5031220;28;20011;-68
2022/08/19 03:10:25;;;;;;;;;;;13.40;99.90;;;;;;5032317;28;20667;-68
2022/08/19 03:12:50;;;;;;;;;;;13.40;99.90;;;;;;5032644;28;19917;-69
2022/08/19 03:15:15;;;;;;;;;;;13.40;99.90;;;;;;5029937;28;19916;-68
2022/08/19 03:17:41;;;;;;;;;;;13.40;99.90;;;;;;5029796;28;19916;-69
2022/08/19 03:20:07;;;;;;;;;;;13.40;99.90;;;;;;5032736;28;19963;-68
2022/08/19 03:22:32;;;;;;;;;;;13.40;99.90;;;;;;5032136;28;19927;-68
2022/08/19 03:24:58;;;;;;;;;;;13.40;99.90;;;;;;5036470;28;20264;-68
2022/08/19 03:27:24;;;;;;;;;;;13.40;99.90;;;;;;5031592;28;19917;-69
2022/08/19 03:29:50;;;;;;;;;;;13.40;99.90;;;;;;5032292;28;19928;-68
2022/08/19 03:32:19;;;;;;;;;;;13.30;99.90;;;;;;5022669;28;20000;-68
2022/08/19 03:34:44;;;;;;;;;;;13.30;99.90;;;;;;5026376;28;20660;-69
2022/08/19 03:37:12;;;;;;;;;;;13.30;99.90;;;;;;5032556;28;19929;-68
2022/08/19 03:39:39;;;;;;;;;;;13.30;99.90;;;;;;5030119;28;20426;-68
2022/08/19 03:42:05;;;;;;;;;;;13.30;99.90;;;;;;5031114;28;19921;-68
2022/08/19 03:44:32;;;;;;;;;;;13.30;99.90;;;;;;5031532;28;19921;-68
2022/08/19 03:46:58;;;;;;;;;;;13.30;99.90;;;;;;5032326;28;19975;-68
2022/08/19 03:49:24;;;;;;;;;;;13.30;99.90;;;;;;5031854;28;19928;-69
2022/08/19 03:51:50;;;;;;;;;;;13.30;99.90;;;;;;5032686;28;19932;-68
2022/08/19 03:54:17;;;;;;;;;;;13.20;99.90;;;;;;5034019;28;20282;-68
2022/08/19 03:56:43;;;;;;;;;;;13.20;99.90;;;;;;5036791;28;20450;-68
2022/08/19 03:59:10;;;;;;;;;;;13.20;99.90;;;;;;5035813;28;19917;-68
2022/08/19 04:01:36;;;;;;;;;;;13.10;99.90;;;;;;5029867;28;20044;-68
2022/08/19 04:04:01;;;;;;;;;;;13.10;99.90;;;;;;5032023;28;20007;-69
2022/08/19 04:06:28;;;;;;;;;;;13.10;99.90;;;;;;5028956;28;19921;-68
2022/08/19 04:08:54;;;;;;;;;;;13.00;99.90;;;;;;5032529;28;19921;-68
2022/08/19 04:11:21;;;;;;;;;;;13.00;99.90;;;;;;5030827;28;20317;-68
2022/08/19 04:13:47;;;;;;;;;;;13.00;99.90;;;;;;5027918;28;19921;-68
2022/08/19 04:16:13;;;;;;;;;;;13.00;99.90;;;;;;5051034;28;19932;-68
2022/08/19 04:18:39;;;;;;;;;;;13.00;99.90;;;;;;5028721;28;19921;-68
2022/08/19 04:21:05;;;;;;;;;;;13.10;99.90;;;;;;5031588;28;19916;-68
2022/08/19 04:23:31;;;;;;;;;;;13.10;99.90;;;;;;5029676;28;19924;-68
2022/08/19 04:25:57;;;;;;;;;;;13.10;99.90;;;;;;5031460;28;19925;-68
2022/08/19 04:28:23;;;;;;;;;;;13.10;99.90;;;;;;5029798;28;20313;-68
2022/08/19 04:30:49;;;;;;;;;;;13.10;99.90;;;;;;5027975;28;19917;-68
2022/08/19 04:33:19;;;;;;;;;;;13.20;99.90;;;;;;5030320;28;19923;-68
2022/08/19 04:35:48;;;;;;;;;;;13.20;99.90;;;;;;5032000;28;19917;-68
2022/08/19 04:38:14;;;;;;;;;;;13.20;99.90;;;;;;5031936;28;19917;-68
2022/08/19 04:43:28;;;;;;;;;;;13.30;99.90;;;;;;5021395;28;19929;-68
2022/08/19 04:45:54;;;;;;;;;;;13.30;99.90;;;;;;5031626;28;20483;-68
2022/08/19 04:48:25;;;;;;;;;;;13.30;99.90;;;;;;5028564;28;19925;-68
2022/08/19 04:50:58;;;;;;;;;;;13.30;99.90;;;;;;5025421;28;19929;-68
2022/08/19 04:53:25;;;;;;;;;;;13.40;99.90;;;;;;5009288;28;20582;-68
2022/08/19 04:55:51;;;;;;;;;;;13.40;99.90;;;;;;5034122;28;20366;-68
2022/08/19 04:58:17;;;;;;;;;;;13.40;99.90;;;;;;5030196;28;19917;-68
2022/08/19 05:00:43;;;;;;;;;;;13.40;99.90;;;;;;5028694;28;20322;-68
2022/08/19 05:03:09;;;;;;;;;;;13.40;99.90;;;;;;5028339;28;19920;-68
2022/08/19 05:05:38;;;;;;;;;;;13.40;99.90;;;;;;5028209;28;19924;-68
2022/08/19 05:08:03;;;;;;;;;;;13.40;99.90;;;;;;5022540;28;20008;-68
2022/08/19 05:10:30;;;;;;;;;;;13.50;99.90;;;;;;5029042;28;20303;-68
2022/08/19 05:12:57;;;;;;;;;;;13.50;99.90;;;;;;5026961;28;19957;-68
2022/08/19 05:15:22;;;;;;;;;;;13.60;99.90;;;;;;5019399;28;19960;-68
2022/08/19 05:22:32;;;;;;;;;;;13.60;99.90;;;;;;5030493;28;19991;-68
2022/08/19 05:23:17;;;;;;;;;;;13.70;99.90;;;;;;5034553;28;19921;-68
2022/08/19 05:25:44;;;;;;;;;;;13.80;99.90;;;;;;5029939;28;20256;-68
2022/08/19 05:28:09;;;;;;;;;;;13.80;99.90;;;;;;5031710;28;19925;-68
2022/08/19 05:30:35;;;;;;;;;;;13.80;99.90;;;;;;5031662;28;19917;-68
2022/08/19 05:33:00;;;;;;;;;;;13.90;99.90;;;;;;5027946;28;19917;-68
2022/08/19 05:35:26;;;;;;;;;;;14.00;99.90;;;;;;5027692;28;19924;-68
2022/08/19 05:37:53;;;;;;;;;;;14.00;99.90;;;;;;5031196;28;20566;-68
2022/08/19 05:40:19;;;;;;;;;;;14.10;99.90;;;;;;5041257;28;19920;-68
2022/08/19 05:42:45;;;;;;;;;;;14.10;99.90;;;;;;5031892;28;20018;-68
2022/08/19 05:45:11;;;;;;;;;;;14.20;99.90;;;;;;5030088;28;19974;-68
2022/08/19 05:47:37;;;;;;;;;;;14.30;99.90;;;;;;5030622;28;19925;-68
2022/08/19 05:50:02;;;;;;;;;;;14.60;99.90;;;;;;5029086;28;19917;-68
2022/08/19 05:52:28;;;;;;;;;;;15.60;99.90;;;;;;5028978;28;19974;-68
2022/08/19 05:54:57;;;;;;;;;;;16.90;99.90;;;;;;5039210;28;19994;-68
2022/08/19 05:57:23;;;;;;;;;;;18.30;99.90;;;;;;5031953;28;20008;-68
2022/08/19 05:59:51;;;;;;;;;;;19.50;99.90;;;;;;5034315;28;20401;-69
2022/08/19 06:02:16;;;;;;;;;;;20.50;99.90;;;;;;5029215;28;19959;-68
2022/08/19 06:04:45;;;;;;;;;;;21.60;99.90;;;;;;5033313;28;19949;-68
2022/08/19 06:07:10;;;;;;;;;;;22.50;99.90;;;;;;5032772;28;19925;-68
2022/08/19 06:09:37;;;;;;;;;;;23.30;99.90;;;;;;5033065;28;19925;-68
2022/08/19 06:12:04;;;;;;;;;;;23.80;98.20;;;;;;5034449;28;20373;-68
2022/08/19 06:14:31;;;;;;;;;;;24.40;97.30;;;;;;5037712;28;19968;-68
2022/08/19 06:16:57;;;;;;;;;;;25.10;96.00;;;;;;5032610;28;19920;-68
2022/08/19 06:19:24;;;;;;;;;;;25.60;96.70;;;;;;5032432;28;20294;-68
2022/08/19 06:21:50;;;;;;;;;;;26.10;94.90;;;;;;5024195;28;20368;-69
2022/08/19 06:24:17;;;;;;;;;;;26.60;94.10;;;;;;5030317;28;19917;-67
2022/08/19 06:26:43;;;;;;;;;;;26.90;93.00;;;;;;5034678;28;19944;-69
2022/08/19 06:29:09;;;;;;;;;;;;;;;;;;5032039;28;19976;-69
2022/08/19 06:31:36;;;;;;;;;;;27.70;92.50;;;;;;5037739;28;19917;-68
2022/08/19 06:34:03;;;;;;;;;;;28.30;91.20;;;;;;5035185;28;19921;-68
2022/08/19 06:36:33;;;;;;;;;;;28.80;92.50;;;;;;5030031;28;19920;-69
2022/08/19 06:39:06;;;;;;;;;;;28.90;89.80;;;;;;5029391;28;19925;-69
2022/08/19 06:41:34;;;;;;;;;;;29.30;88.60;;;;;;5034032;28;20405;-69
2022/08/19 06:44:00;;;;;;;;;;;29.40;91.70;;;;;;5032339;28;19943;-69
2022/08/19 06:46:26;;;;;;;;;;;29.70;91.30;;;;;;5033830;28;19942;-69
2022/08/19 06:48:53;;;;;;;;;;;30.00;90.90;;;;;;5035779;28;19921;-68
2022/08/19 06:51:18;;;;;;;;;;;30.20;91.10;;;;;;5033376;28;20035;-68
2022/08/19 06:53:46;;;;;;;;;;;30.50;90.10;;;;;;5032912;28;19999;-69
2022/08/19 06:56:16;;;;;;;;;;;30.70;89.40;;;;;;5037769;28;19921;-68
2022/08/19 06:58:42;;;;;;;;;;;30.70;86.40;;;;;;5030272;28;19917;-69
2022/08/19 07:01:08;;;;;;;;;;;31.00;86.70;;;;;;5032318;28;20745;-69
2022/08/19 07:03:34;;;;;;;;;;;31.00;85.30;;;;;;5026204;28;19921;-69
2022/08/19 07:06:07;;;;;;;;;;;31.20;87.40;;;;;;5032392;28;19924;-69
2022/08/19 07:08:33;;;;;;;;;;;31.40;84.70;;;;;;5032411;28;19932;-69
2022/08/19 07:10:59;;;;;;;;;;;31.70;84.20;;;;;;5033770;28;19917;-69
2022/08/19 07:13:24;;;;;;;;;;;32.10;87.80;;;;;;5025093;28;19939;-69
2022/08/19 07:15:50;;;;;;;;;;;32.10;87.20;;;;;;5033846;28;19916;-68
2022/08/19 07:18:20;;;;;;;;;;;32.10;85.30;;;;;;5031360;28;19963;-69
2022/08/19 07:20:45;;;;;;;;;;;32.20;83.50;;;;;;5030502;28;20043;-68
2022/08/19 07:23:11;;;;;;;;;;;32.50;82.30;;;;;;5030603;28;20004;-69
2022/08/19 07:25:37;;;;;;;;;;;32.50;84.70;;;;;;5031110;28;19921;-69
2022/08/19 07:28:02;;;;;;;;;;;32.90;80.30;;;;;;5028461;28;19929;-69
2022/08/19 07:30:28;;;;;;;;;;;32.90;78.20;;;;;;5030778;28;19932;-68
2022/08/19 07:32:53;;;;;;;;;;;32.80;79.40;;;;;;5031962;28;19940;-68
2022/08/19 07:35:19;;;;;;;;;;;32.60;79.50;;;;;;5030636;28;20287;-68
2022/08/19 07:37:45;;;;;;;;;;;32.70;79.10;;;;;;5023487;28;19967;-68
2022/08/19 07:40:11;;;;;;;;;;;32.40;80.80;;;;;;5024770;28;19921;-69
2022/08/19 07:42:36;;;;;;;;;;;32.80;79.30;;;;;;5029612;28;19921;-69
2022/08/19 07:45:02;;;;;;;;;;;32.90;80.90;;;;;;5029255;28;20341;-69
2022/08/19 07:47:28;;;;;;;;;;;33.00;81.10;;;;;;5030344;28;19921;-68
2022/08/19 07:49:54;;;;;;;;;;;32.90;80.20;;;;;;5021812;28;20379;-68
2022/08/19 07:52:19;;;;;;;;;;;32.80;78.10;;;;;;5028338;28;20373;-68
2022/08/19 07:54:45;;;;;;;;;;;32.60;79.30;;;;;;5027608;28;20572;-68
2022/08/19 07:57:11;;;;;;;;;;;32.10;79.10;;;;;;5027465;28;20362;-68
2022/08/19 07:59:36;;;;;;;;;;;31.10;80.20;;;;;;5028209;28;19928;-68
2022/08/19 08:02:02;;;;;;;;;;;30.30;81.90;;;;;;5031832;28;20004;-68
2022/08/19 08:09:57;;;;;;;;;;;28.00;85.50;;;;;;5030616;28;20434;-68
2022/08/19 08:12:28;;;;;;;;;;;27.50;85.20;;;;;;5026135;28;19923;-68
2022/08/19 08:14:55;;;;;;;;;;;27.10;84.70;;;;;;5021262;28;20383;-68
2022/08/19 08:17:23;;;;;;;;;;;26.60;90.20;;;;;;5015867;28;19925;-68
2022/08/19 08:19:50;;;;;;;;;;;26.30;88.60;;;;;;5026165;28;19921;-68
2022/08/19 08:25:06;;;;;;;;;;;25.80;92.40;;;;;;5020842;28;19929;-68
2022/08/19 08:27:34;;;;;;;;;;;25.70;90.30;;;;;;5029557;28;19921;-68
2022/08/19 08:30:00;;;;;;;;;;;25.60;91.00;;;;;;5019525;28;20279;-68
2022/08/19 08:32:26;;;;;;;;;;;25.40;92.00;;;;;;5022113;28;19996;-68
2022/08/19 08:34:52;;;;;;;;;;;25.30;92.30;;;;;;5021710;28;20295;-68
2022/08/19 08:37:17;;;;;;;;;;;25.20;92.90;;;;;;5028395;28;19925;-68
2022/08/19 08:39:43;;;;;;;;;;;25.20;92.90;;;;;;5027752;28;19925;-68
2022/08/19 08:42:09;;;;;;;;;;;25.10;93.30;;;;;;5030608;28;19917;-68
2022/08/19 08:44:37;;;;;;;;;;;25.00;93.10;;;;;;5032199;28;19917;-68
2022/08/19 08:47:06;;;;;;;;;;;24.90;93.80;;;;;;5029895;28;19917;-68
2022/08/19 08:49:43;;;;;;;;;;;24.90;92.80;;;;;;5030611;28;19921;-67
2022/08/19 08:54:44;;;;;;;;;;;25.00;92.60;;;;;;5049753;28;20281;-66
2022/08/19 08:57:23;;;;;;;;;;;25.00;92.60;;;;;;5060124;28;19924;-65
2022/08/19 08:59:51;;;;;;;;;;;25.10;92.20;;;;;;5053286;28;19963;-65
2022/08/19 09:02:16;;;;;;;;;;;25.00;94.90;;;;;;5051027;28;19916;-66
2022/08/19 09:04:42;;;;;;;;;;;24.90;94.30;;;;;;5045068;28;20301;-65
2022/08/19 09:07:20;;;;;;;;;;;25.00;93.80;;;;;;5043106;28;19927;-66
2022/08/19 09:09:48;;;;;;;;;;;24.90;95.10;;;;;;5052677;28;19931;-65
2022/08/19 09:12:34;;;;;;;;;;;25.00;95.20;;;;;;5055492;28;20361;-66
2022/08/19 09:15:07;;;;;;;;;;;25.10;94.70;;;;;;5039727;28;19917;-65
2022/08/19 09:17:38;;;;;;;;;;;25.10;94.70;;;;;;5054015;28;19916;-66
2022/08/19 09:20:08;;;;;;;;;;;25.20;93.80;;;;;;5052058;28;19916;-66
2022/08/19 09:22:33;;;;;;;;;;;25.30;93.20;;;;;;5049211;28;19921;-65
2022/08/19 09:24:59;;;;;;;;;;;25.30;92.50;;;;;;5051559;28;20259;-66
2022/08/19 09:27:25;;;;;;;;;;;25.40;93.40;;;;;;5053299;28;19925;-65
2022/08/19 09:29:51;;;;;;;;;;;25.50;92.20;;;;;;5050743;28;20382;-65
2022/08/19 09:32:17;;;;;;;;;;;25.40;92.20;;;;;;5068370;28;19964;-66
2022/08/19 09:34:44;;;;;;;;;;;25.50;92.20;;;;;;5053529;28;19917;-66
2022/08/19 09:37:09;;;;;;;;;;;25.60;91.50;;;;;;5054017;28;19955;-65
2022/08/19 09:39:35;;;;;;;;;;;25.50;91.60;;;;;;5053452;28;19920;-65
2022/08/19 09:42:00;;;;;;;;;;;25.60;91.90;;;;;;5039942;28;19927;-66
2022/08/19 09:44:26;;;;;;;;;;;25.60;91.60;;;;;;5045975;28;19921;-65
2022/08/19 09:46:51;;;;;;;;;;;25.60;92.40;;;;;;5070772;28;20391;-65
2022/08/19 09:49:21;;;;;;;;;;;25.70;92.10;;;;;;5064360;28;19996;-66
2022/08/19 09:51:50;;;;;;;;;;;25.70;92.20;;;;;;5050122;28;19917;-66
2022/08/19 09:54:16;;;;;;;;;;;25.80;90.90;;;;;;5044516;28;20364;-66
2022/08/19 09:56:42;;;;;;;;;;;25.90;90.70;;;;;;5049198;28;19921;-66
2022/08/19 09:59:09;;;;;;;;;;;25.90;92.50;;;;;;5043645;28;19916;-65
2022/08/19 10:01:34;;;;;;;;;;;25.90;91.60;;;;;;5053481;28;20019;-65
2022/08/19 10:04:01;;;;;;;;;;;26.00;92.20;;;;;;5053963;28;20023;-65
2022/08/19 10:06:31;;;;;;;;;;;26.10;91.40;;;;;;5059578;28;19920;-66
2022/08/19 10:08:56;;;;;;;;;;;26.00;92.40;;;;;;5075060;28;19969;-65
2022/08/19 10:11:22;;;;;;;;;;;26.10;91.20;;;;;;5069262;28;20037;-66
2022/08/19 10:13:48;;;;;;;;;;;26.10;91.70;;;;;;5049490;28;20345;-66
2022/08/19 10:16:15;;;;;;;;;;;25.90;92.40;;;;;;5051673;28;19921;-66
2022/08/19 10:18:45;;;;;;;;;;;26.10;92.20;;;;;;5045243;28;19931;-66
2022/08/19 10:21:19;;;;;;;;;;;26.10;92.40;;;;;;5053361;28;19927;-65
2022/08/19 10:23:46;;;;;;;;;;;26.30;90.50;;;;;;5054723;28;19924;-66
2022/08/19 10:26:13;;;;;;;;;;;26.40;90.50;;;;;;5035917;28;20015;-65
2022/08/19 10:28:39;;;;;;;;;;;26.40;92.20;;;;;;5054377;28;19959;-66
2022/08/19 10:31:08;;;;;;;;;;;26.50;92.00;;;;;;5054644;28;20377;-65
2022/08/19 10:33:34;;;;;;;;;;;26.60;91.10;;;;;;5054620;28;19924;-65
2022/08/19 10:36:04;;;;;;;;;;;26.60;92.00;;;;;;5054527;28;19927;-65
2022/08/19 10:38:31;;;;;;;;;;;26.60;91.40;;;;;;5048037;28;19994;-65
2022/08/19 10:40:57;;;;;;;;;;;26.60;91.30;;;;;;5053792;28;19920;-66
2022/08/19 10:43:22;;;;;;;;;;;26.40;91.60;;;;;;5054473;28;19924;-66
2022/08/19 10:45:56;;;;;;;;;;;26.50;91.40;;;;;;5054037;28;19970;-66
2022/08/19 10:48:21;;;;;;;;;;;26.50;91.00;;;;;;5053019;28;19921;-66
2022/08/19 10:53:31;;;;;;;;;;;26.60;90.90;;;;;;5052457;28;19916;-66
2022/08/19 10:58:41;;;;;;;;;;;26.90;91.30;;;;;;5039580;28;19917;-66
2022/08/19 11:01:07;;;;;;;;;;;26.90;90.10;;;;;;5048571;28;19927;-65
2022/08/19 11:03:32;;;;;;;;;;;27.00;90.70;;;;;;5050029;28;20441;-65
2022/08/19 11:06:08;;;;;;;;;;;27.10;90.50;;;;;;5045082;28;20264;-64
2022/08/19 11:08:34;;;;;;;;;;;27.30;92.20;;;;;;5045258;28;19931;-64
2022/08/19 11:11:02;;;;;;;;;;;27.60;90.30;;;;;;5062455;28;19917;-64
2022/08/19 11:13:29;;;;;;;;;;;27.80;90.40;;;;;;5049239;28;19971;-65
2022/08/19 11:16:02;;;;;;;;;;;27.70;90.20;;;;;;5053171;28;19925;-65
2022/08/19 11:18:28;;;;;;;;;;;27.60;90.80;;;;;;5049020;28;21080;-64
2022/08/19 11:20:53;;;;;;;;;;;27.20;90.30;;;;;;5047646;28;19923;-65
2022/08/19 11:23:19;;;;;;;;;;;27.40;90.50;;;;;;5053160;28;19928;-64
2022/08/19 11:25:45;;;;;;;;;;;27.40;90.30;;;;;;5064304;28;19924;-65
2022/08/19 11:28:10;;;;;;;;;;;26.90;91.00;;;;;;5050907;28;19983;-64
2022/08/19 11:30:36;;;;;;;;;;;26.80;91.20;;;;;;5047659;28;19952;-65
2022/08/19 11:33:02;;;;;;;;;;;26.70;91.10;;;;;;5052059;28;19917;-65
2022/08/19 11:35:28;;;;;;;;;;;26.60;91.20;;;;;;5050793;28;19978;-65
2022/08/19 11:37:53;;;;;;;;;;;26.60;91.90;;;;;;5045292;28;19920;-65
2022/08/19 11:40:19;;;;;;;;;;;26.80;91.00;;;;;;5050888;28;19925;-65
2022/08/19 11:42:56;;;;;;;;;;;27.00;91.30;;;;;;5035381;28;20424;-64
2022/08/19 11:45:22;;;;;;;;;;;27.00;91.00;;;;;;5053255;28;20370;-65
2022/08/19 11:47:48;;;;;;;;;;;26.90;91.00;;;;;;5049705;28;19917;-65
2022/08/19 11:50:14;;;;;;;;;;;26.90;90.90;;;;;;5044766;28;19970;-65
2022/08/19 11:52:40;;;;;;;;;;;26.80;91.60;;;;;;5042486;28;19924;-65
2022/08/19 11:55:06;;;;;;;;;;;27.00;90.50;;;;;;5043255;28;19921;-64
2022/08/19 11:57:31;;;;;;;;;;;27.20;90.90;;;;;;5043136;28;19929;-65
2022/08/19 11:59:57;;;;;;;;;;;27.30;91.40;;;;;;5050570;28;19921;-65
2022/08/19 12:02:23;;;;;;;;;;;27.60;90.80;;;;;;5052344;28;19921;-64
2022/08/19 12:04:49;;;;;;;;;;;27.90;90.40;;;;;;5050895;28;20353;-65
2022/08/19 12:07:14;;;;;;;;;;;28.10;89.30;;;;;;5032464;28;19999;-64
2022/08/19 12:09:40;;;;;;;;;;;28.30;88.20;;;;;;5044486;28;20378;-64
2022/08/19 12:12:05;;;;;;;;;;;28.40;87.60;;;;;;5048520;28;19917;-65
2022/08/19 12:14:31;;;;;;;;;;;28.20;87.60;;;;;;5049526;28;19948;-64
2022/08/19 12:16:57;;;;;;;;;;;28.30;88.00;;;;;;5048809;28;19978;-65
2022/08/19 12:19:24;;;;;;;;;;;28.20;89.50;;;;;;5037759;28;20474;-66
2022/08/19 12:21:50;;;;;;;;;;;28.30;87.70;;;;;;5050409;28;19927;-65
2022/08/19 12:24:20;;;;;;;;;;;28.30;89.10;;;;;;5050266;28;19959;-65
2022/08/19 12:26:45;;;;;;;;;;;28.30;88.90;;;;;;5051409;28;20034;-66
2022/08/19 12:29:11;;;;;;;;;;;28.00;88.20;;;;;;5044305;28;20570;-65
2022/08/19 12:31:36;;;;;;;;;;;28.10;88.90;;;;;;5047105;28;19921;-66
2022/08/19 12:34:02;;;;;;;;;;;28.10;90.20;;;;;;5050710;28;19981;-65
2022/08/19 12:36:27;;;;;;;;;;;28.10;88.40;;;;;;5048795;28;19925;-66
2022/08/19 12:38:53;;;;;;;;;;;28.00;87.90;;;;;;5051230;28;19970;-65
2022/08/19 12:41:21;;;;;;;;;;;28.00;88.70;;;;;;5031152;28;20950;-65
2022/08/19 12:43:49;;;;;;;;;;;28.10;90.20;;;;;;5049676;28;20400;-65
2022/08/19 12:46:15;;;;;;;;;;;28.20;88.70;;;;;;5048791;28;19924;-66
2022/08/19 12:48:45;;;;;;;;;;;28.10;87.20;;;;;;5049679;28;20280;-65
2022/08/19 12:51:15;;;;;;;;;;;28.20;89.20;;;;;;5040923;28;20015;-65
2022/08/19 12:53:41;;;;;;;;;;;28.30;88.20;;;;;;5028272;28;19917;-65
2022/08/19 12:56:07;;;;;;;;;;;28.30;87.40;;;;;;5044039;28;19932;-65
2022/08/19 12:58:34;;;;;;;;;;;28.40;88.40;;;;;;5049861;28;19956;-65
2022/08/19 13:01:05;;;;;;;;;;;28.40;87.60;;;;;;5049905;28;19917;-65
2022/08/19 13:03:30;;;;;;;;;;;28.40;87.50;;;;;;5053585;28;19921;-65
2022/08/19 13:05:56;;;;;;;;;;;28.50;87.20;;;;;;5041722;28;20270;-65
2022/08/19 13:08:22;;;;;;;;;;;28.60;86.80;;;;;;5038711;28;19974;-65
2022/08/19 13:10:47;;;;;;;;;;;28.70;84.60;;;;;;5033046;28;19917;-65
2022/08/19 13:13:13;;;;;;;;;;;28.60;83.60;;;;;;5042982;28;19917;-65
2022/08/19 13:15:40;;;;;;;;;;;28.50;87.10;;;;;;5047997;28;20012;-65
2022/08/19 13:18:07;;;;;;;;;;;28.50;86.10;;;;;;5051264;28;20006;-65
2022/08/19 13:20:32;;;;;;;;;;;28.60;85.50;;;;;;5045494;28;20380;-65
2022/08/19 13:22:58;;;;;;;;;;;28.70;85.80;;;;;;5051903;28;19921;-65
2022/08/19 13:25:24;;;;;;;;;;;28.70;85.80;;;;;;5051628;28;19944;-65
2022/08/19 13:27:50;;;;;;;;;;;28.60;85.40;;;;;;5058038;28;20369;-65
2022/08/19 13:33:14;;;;;;;;;;;28.60;84.10;;;;;;5051586;28;19920;-65
2022/08/19 13:35:43;;;;;;;;;;;28.30;81.20;;;;;;5049817;28;19917;-65
2022/08/19 13:38:10;;;;;;;;;;;28.60;83.30;;;;;;5050346;28;19920;-65
2022/08/19 13:40:36;;;;;;;;;;;28.80;84.40;;;;;;5043288;28;19964;-65
2022/08/19 13:43:03;;;;;;;;;;;28.80;84.20;;;;;;5049029;28;19928;-66
2022/08/19 13:45:29;;;;;;;;;;;28.80;84.60;;;;;;5048524;28;20389;-66
2022/08/19 13:47:56;;;;;;;;;;;28.40;86.20;;;;;;5046806;28;19929;-64
2022/08/19 13:50:24;;;;;;;;;;;28.30;86.40;;;;;;5050698;28;19916;-65
2022/08/19 13:52:50;;;;;;;;;;;27.80;90.20;;;;;;5047154;28;19916;-65
2022/08/19 13:55:15;;;;;;;;;;;27.60;90.70;;;;;;5047294;28;19943;-65
2022/08/19 13:57:41;;;;;;;;;;;27.70;90.30;;;;;;5049901;28;19917;-65
2022/08/19 14:00:10;;;;;;;;;;;27.30;90.80;;;;;;5046193;28;19986;-66
2022/08/19 14:02:37;;;;;;;;;;;27.20;91.20;;;;;;5036936;28;19924;-65
2022/08/19 14:05:03;;;;;;;;;;;26.70;92.70;;;;;;5046225;28;19924;-65
2022/08/19 14:07:28;;;;;;;;;;;26.50;93.10;;;;;;5043010;28;19924;-66
2022/08/19 14:09:54;;;;;;;;;;;26.40;92.30;;;;;;5047424;28;19932;-65
2022/08/19 14:12:20;;;;;;;;;;;26.20;94.00;;;;;;5047683;28;19916;-64
2022/08/19 14:14:46;;;;;;;;;;;26.10;94.00;;;;;;5049963;28;19917;-65
2022/08/19 14:17:11;;;;;;;;;;;25.90;93.80;;;;;;5049651;28;19974;-65
2022/08/19 14:19:37;;;;;;;;;;;25.70;94.40;;;;;;5041569;28;19920;-65
2022/08/19 14:22:03;;;;;;;;;;;25.60;94.70;;;;;;5047545;28;19925;-65
2022/08/19 14:24:28;;;;;;;;;;;25.80;94.90;;;;;;5046652;28;19921;-65
2022/08/19 14:26:54;;;;;;;;;;;25.60;94.60;;;;;;5053779;28;19970;-65
2022/08/19 14:29:19;;;;;;;;;;;25.50;95.50;;;;;;5026584;28;19927;-65
2022/08/19 14:31:45;;;;;;;;;;;25.50;95.30;;;;;;5051649;28;19978;-65
2022/08/19 14:34:12;;;;;;;;;;;25.60;95.00;;;;;;5044905;28;19927;-65
2022/08/19 14:36:38;;;;;;;;;;;25.60;94.40;;;;;;5052039;28;19917;-65
2022/08/19 14:39:04;;;;;;;;;;;25.70;94.60;;;;;;5045705;28;19939;-65
2022/08/19 14:41:30;;;;;;;;;;;25.70;94.70;;;;;;5045839;28;19970;-65